createdAt,value
2022-12-22T00:00:32.491Z,79.55
2022-12-22T00:03:18.665Z,77.75
2022-12-22T00:06:04.980Z,86.45
2022-12-22T00:08:51.101Z,80.45
2022-12-22T00:11:45.569Z,85.32
2022-12-22T00:14:31.581Z,81.60
2022-12-22T00:17:21.152Z,88.38
2022-12-22T00:20:07.151Z,85.28
2022-12-22T00:22:53.139Z,77.35
2022-12-22T00:25:39.034Z,82.50
2022-12-22T00:28:33.811Z,74.78
2022-12-22T00:31:19.954Z,86.00
2022-12-22T00:36:51.702Z,77.60
2022-12-22T00:39:37.753Z,80.93
2022-12-22T00:45:09.435Z,81.53
2022-12-22T00:47:55.646Z,78.00
2022-12-22T00:50:51.227Z,81.82
2022-12-22T00:53:37.671Z,78.95
2022-12-22T00:56:25.661Z,77.93
2022-12-22T00:59:15.698Z,75.85
2022-12-22T01:02:01.835Z,77.18
2022-12-22T01:04:47.577Z,79.65
2022-12-22T01:07:37.608Z,76.57
2022-12-22T01:10:24.093Z,81.95
2022-12-22T01:13:12.806Z,81.22
2022-12-22T01:15:58.952Z,82.85
2022-12-22T01:18:44.869Z,84.00
2022-12-22T01:21:30.918Z,83.32
2022-12-22T01:24:16.905Z,82.57
2022-12-22T01:27:02.754Z,80.03
2022-12-22T01:29:48.778Z,84.82
2022-12-22T01:32:34.729Z,78.72
2022-12-22T01:35:20.735Z,85.03
2022-12-22T01:38:06.509Z,83.63
2022-12-22T01:40:52.563Z,80.13
2022-12-22T01:46:49.768Z,79.55
2022-12-22T01:50:00.191Z,80.25
2022-12-22T01:52:53.771Z,81.93
2022-12-22T01:55:43.847Z,75.45
2022-12-22T01:58:45.670Z,81.38
2022-12-22T02:01:31.575Z,74.13
2022-12-22T02:04:18.432Z,68.47
2022-12-22T02:07:05.656Z,71.95
2022-12-22T02:10:30.796Z,68.70
2022-12-22T02:13:41.615Z,65.40
2022-12-22T02:16:50.288Z,63.30
2022-12-22T02:20:02.983Z,61.83
2022-12-22T02:23:27.686Z,59.22
2022-12-22T02:26:57.662Z,59.50
2022-12-22T02:30:00.216Z,57.95
2022-12-22T02:32:46.111Z,58.88
2022-12-22T02:35:35.767Z,57.08
2022-12-22T02:39:12.266Z,58.63
2022-12-22T02:42:17.543Z,55.22
2022-12-22T02:45:52.396Z,54.28
2022-12-22T02:49:08.055Z,54.47
2022-12-22T02:52:04.069Z,55.75
2022-12-22T02:54:51.913Z,52.22
2022-12-22T02:57:38.993Z,59.80
2022-12-22T03:00:26.388Z,52.83
2022-12-22T03:03:12.641Z,54.70
2022-12-22T03:08:44.728Z,53.60
2022-12-22T03:11:30.804Z,53.97
2022-12-22T03:14:16.872Z,52.67
2022-12-22T03:17:02.838Z,53.85
2022-12-22T03:19:49.021Z,54.92
2022-12-22T03:25:20.683Z,56.13
2022-12-22T03:27:47.951Z,55.00
2022-12-22T03:30:15.469Z,55.83
2022-12-22T03:32:42.600Z,54.15
2022-12-22T03:35:09.990Z,56.35
2022-12-22T03:37:37.219Z,57.55
2022-12-22T03:40:05.322Z,57.88
2022-12-22T03:42:51.297Z,61.38
2022-12-22T03:45:37.274Z,61.15
2022-12-22T03:48:04.625Z,57.33
2022-12-22T03:50:31.864Z,59.40
2022-12-22T03:52:59.002Z,62.15
2022-12-22T03:55:26.572Z,61.72
2022-12-22T03:57:53.950Z,61.97
2022-12-22T04:00:21.257Z,68.40
2022-12-22T04:02:48.774Z,58.65
2022-12-22T04:05:16.404Z,61.78
2022-12-22T04:07:43.688Z,62.08
2022-12-22T04:10:29.577Z,56.00
2022-12-22T04:12:56.944Z,62.97
2022-12-22T04:15:32.209Z,61.85
2022-12-22T04:18:00.190Z,62.38
2022-12-22T04:20:28.371Z,59.63
2022-12-22T04:22:57.027Z,56.58
2022-12-22T04:25:26.093Z,58.53
2022-12-22T04:27:53.431Z,58.47
2022-12-22T04:30:21.128Z,60.47
2022-12-22T04:32:48.292Z,62.15
2022-12-22T04:35:15.630Z,60.22
2022-12-22T04:37:42.961Z,62.95
2022-12-22T04:40:10.623Z,65.30
2022-12-22T04:42:37.892Z,60.20
2022-12-22T04:45:06.346Z,59.40
2022-12-22T04:47:33.482Z,63.67
2022-12-22T04:50:00.687Z,62.97
2022-12-22T04:52:27.882Z,63.88
2022-12-22T04:54:55.059Z,62.08
2022-12-22T04:57:22.408Z,60.88
2022-12-22T04:59:49.541Z,60.55
2022-12-22T05:02:16.903Z,61.47
2022-12-22T05:04:44.110Z,61.35
2022-12-22T05:07:11.349Z,57.50
2022-12-22T05:09:38.585Z,63.95
2022-12-22T05:12:26.315Z,63.13
2022-12-22T05:14:53.827Z,58.13
2022-12-22T05:17:21.102Z,60.08
2022-12-22T05:19:48.447Z,58.38
2022-12-22T05:22:15.773Z,61.45
2022-12-22T05:24:42.926Z,57.67
2022-12-22T05:27:12.509Z,61.53
2022-12-22T05:29:39.661Z,58.05
2022-12-22T05:32:06.923Z,55.78
2022-12-22T05:34:34.254Z,57.75
2022-12-22T05:37:01.399Z,53.30
2022-12-22T05:39:28.615Z,51.55
2022-12-22T05:41:55.915Z,54.65
2022-12-22T05:44:23.077Z,55.30
2022-12-22T05:46:53.395Z,59.05
2022-12-22T05:49:21.302Z,55.25
2022-12-22T05:51:48.868Z,59.35
2022-12-22T05:54:16.249Z,54.47
2022-12-22T05:56:43.423Z,56.45
2022-12-22T05:59:11.946Z,55.13
2022-12-22T06:01:39.499Z,57.40
2022-12-22T06:04:06.880Z,55.10
2022-12-22T06:06:34.117Z,57.70
2022-12-22T06:09:01.342Z,58.08
2022-12-22T06:11:31.555Z,60.67
2022-12-22T06:13:58.724Z,55.58
2022-12-22T06:16:26.111Z,57.63
2022-12-22T06:18:53.443Z,57.80
2022-12-22T06:21:20.588Z,61.88
2022-12-22T06:23:48.347Z,57.85
2022-12-22T06:26:18.252Z,62.70
2022-12-22T06:28:45.613Z,63.42
2022-12-22T06:31:13.056Z,63.28
2022-12-22T06:33:40.374Z,59.03
2022-12-22T06:36:09.303Z,57.78
2022-12-22T06:38:36.518Z,60.40
2022-12-22T06:41:04.085Z,58.78
2022-12-22T06:43:31.475Z,60.72
2022-12-22T06:45:58.706Z,61.33
2022-12-22T06:48:25.995Z,63.08
2022-12-22T06:51:01.050Z,64.65
2022-12-22T06:53:28.296Z,64.35
2022-12-22T06:55:57.908Z,63.88
2022-12-22T06:58:31.030Z,60.95
2022-12-22T07:00:58.242Z,62.33
2022-12-22T07:03:25.911Z,60.72
2022-12-22T07:05:53.439Z,66.78
2022-12-22T07:08:23.215Z,61.40
2022-12-22T07:10:59.664Z,61.33
2022-12-22T07:13:34.002Z,59.05
2022-12-22T07:16:11.732Z,58.85
2022-12-22T07:18:45.450Z,63.47
2022-12-22T07:21:22.391Z,58.88
2022-12-22T07:23:52.213Z,59.40
2022-12-22T07:26:22.085Z,60.17
2022-12-22T07:28:55.826Z,62.28
2022-12-22T07:31:26.337Z,60.75
2022-12-22T07:34:28.059Z,61.15
2022-12-22T07:36:46.125Z,59.90
2022-12-22T07:39:28.652Z,57.50
2022-12-22T07:42:27.627Z,64.35
2022-12-22T07:45:00.236Z,61.42
2022-12-22T07:47:35.670Z,70.78
2022-12-22T07:53:06.783Z,58.15
2022-12-22T07:55:40.753Z,59.33
2022-12-22T07:58:10.697Z,60.08
2022-12-22T08:00:42.683Z,61.88
2022-12-22T08:03:13.214Z,59.35
2022-12-22T08:05:56.725Z,95.70
2022-12-22T08:08:36.855Z,63.97
2022-12-22T08:11:12.547Z,76.90
2022-12-22T08:13:43.991Z,62.13
2022-12-22T08:16:18.201Z,69.45
2022-12-22T08:18:47.735Z,68.13
2022-12-22T08:21:16.711Z,66.38
2022-12-22T08:23:50.886Z,58.90
2022-12-22T08:26:49.343Z,65.13
2022-12-22T08:30:08.485Z,70.47
2022-12-22T08:32:40.558Z,64.22
2022-12-22T08:35:16.250Z,58.28
2022-12-22T08:37:59.019Z,61.20
2022-12-22T08:40:38.062Z,54.00
2022-12-22T08:43:13.715Z,56.28
2022-12-22T08:45:44.413Z,57.80
2022-12-22T08:48:34.008Z,55.65
2022-12-22T08:51:14.949Z,63.85
2022-12-22T08:54:05.894Z,58.25
2022-12-22T08:56:37.155Z,58.00
2022-12-22T08:59:14.097Z,60.35
2022-12-22T09:01:48.188Z,61.30
2022-12-22T09:04:25.008Z,59.97
2022-12-22T09:07:21.757Z,61.50
2022-12-22T09:09:54.858Z,54.50
2022-12-22T09:12:22.270Z,56.65
2022-12-22T09:14:55.646Z,52.55
2022-12-22T09:17:32.024Z,56.97
2022-12-22T09:20:06.634Z,59.42
2022-12-22T09:22:44.236Z,60.17
2022-12-22T09:25:18.475Z,56.67
2022-12-22T09:27:57.743Z,64.80
2022-12-22T09:30:36.979Z,60.53
2022-12-22T09:33:11.018Z,60.65
2022-12-22T09:35:46.347Z,57.95
2022-12-22T09:38:14.455Z,56.05
2022-12-22T09:40:52.855Z,60.65
2022-12-22T09:43:28.897Z,53.28
2022-12-22T09:46:31.132Z,60.17
2022-12-22T09:48:59.791Z,54.47
2022-12-22T09:52:04.115Z,53.92
2022-12-22T09:54:32.053Z,57.75
2022-12-22T09:57:07.933Z,59.40
2022-12-22T10:03:04.358Z,57.55
2022-12-22T10:06:09.914Z,53.92
2022-12-22T10:08:46.984Z,62.20
2022-12-22T10:11:59.495Z,53.17
2022-12-22T10:14:51.009Z,57.33
2022-12-22T10:17:35.951Z,58.22
2022-12-22T10:20:36.067Z,54.60
2022-12-22T10:23:35.912Z,57.97
2022-12-22T10:26:37.771Z,54.10
2022-12-22T10:29:25.584Z,52.50
2022-12-22T10:32:22.479Z,55.50
2022-12-22T10:35:12.471Z,61.65
2022-12-22T10:37:43.771Z,63.00
2022-12-22T10:40:27.029Z,60.28
2022-12-22T10:43:05.025Z,56.33
2022-12-22T10:48:49.014Z,57.50
2022-12-22T10:51:29.250Z,53.85
2022-12-22T10:54:16.561Z,56.40
2022-12-22T10:57:32.187Z,55.22
2022-12-22T11:00:21.092Z,49.10
2022-12-22T11:03:06.960Z,50.65
2022-12-22T11:05:42.460Z,48.50
2022-12-22T11:08:26.646Z,44.03
2022-12-22T11:11:11.103Z,43.75
2022-12-22T11:14:20.691Z,47.40
2022-12-22T11:17:20.136Z,44.70
2022-12-22T11:21:03.775Z,45.42
2022-12-22T11:24:36.138Z,43.67
2022-12-22T11:27:44.058Z,45.13
2022-12-22T11:30:52.506Z,50.72
2022-12-22T11:34:31.942Z,45.42
2022-12-22T11:37:52.189Z,43.13
2022-12-22T11:40:53.346Z,50.15
2022-12-22T11:44:19.258Z,44.92
2022-12-22T11:47:26.981Z,49.28
2022-12-22T11:54:11.930Z,42.33
2022-12-22T11:56:52.451Z,47.63
2022-12-22T12:00:08.233Z,45.38
2022-12-22T12:03:38.675Z,51.35
2022-12-22T12:07:03.143Z,54.08
2022-12-22T12:10:28.389Z,50.05
2022-12-22T12:17:03.035Z,48.28
2022-12-22T12:20:20.595Z,48.70
2022-12-22T12:23:29.454Z,43.72
2022-12-22T12:26:34.205Z,44.30
2022-12-22T12:33:30.861Z,46.03
2022-12-22T12:36:26.651Z,44.40
2022-12-22T12:39:32.285Z,42.95
2022-12-22T12:42:46.723Z,42.05
2022-12-22T12:48:26.523Z,45.33
2022-12-22T12:51:04.498Z,46.85
2022-12-22T12:56:14.012Z,39.45
2022-12-22T12:58:59.076Z,45.10
2022-12-22T13:01:34.306Z,44.05
2022-12-22T13:04:13.157Z,41.78
2022-12-22T13:07:05.007Z,45.03
2022-12-22T13:10:33.364Z,40.95
2022-12-22T13:13:34.812Z,43.30
2022-12-22T13:16:02.425Z,48.50
2022-12-22T13:18:49.897Z,42.90
2022-12-22T13:21:54.856Z,42.50
2022-12-22T13:24:46.889Z,39.28
2022-12-22T13:27:22.717Z,42.50
2022-12-22T13:29:55.591Z,42.08
2022-12-22T13:32:34.080Z,47.90
2022-12-22T13:35:38.657Z,46.58
2022-12-22T13:38:34.411Z,46.75
2022-12-22T13:41:18.882Z,47.58
2022-12-22T13:44:01.217Z,45.55
2022-12-22T13:46:28.597Z,45.13
2022-12-22T13:49:00.298Z,44.97
2022-12-22T13:51:32.795Z,49.03
2022-12-22T13:54:18.016Z,52.03
2022-12-22T13:56:52.971Z,44.27
2022-12-22T13:59:43.767Z,45.83
2022-12-22T14:02:11.929Z,48.92
2022-12-22T14:05:03.721Z,47.88
2022-12-22T14:07:31.580Z,47.72
2022-12-22T14:09:59.347Z,44.30
2022-12-22T14:12:47.167Z,51.35
2022-12-22T14:15:20.156Z,49.65
2022-12-22T14:17:52.648Z,44.17
2022-12-22T14:20:32.290Z,43.25
2022-12-22T14:23:06.453Z,47.00
2022-12-22T14:25:44.605Z,43.63
2022-12-22T14:28:43.139Z,45.35
2022-12-22T14:31:13.619Z,44.92
2022-12-22T14:34:05.172Z,45.40
2022-12-22T14:36:46.120Z,46.00
2022-12-22T14:39:30.877Z,43.58
2022-12-22T14:42:12.133Z,42.65
2022-12-22T14:44:46.343Z,42.33
2022-12-22T14:47:16.070Z,49.83
2022-12-22T14:50:27.342Z,47.83
2022-12-22T14:53:00.517Z,40.50
2022-12-22T14:55:42.791Z,44.15
2022-12-22T14:58:29.735Z,43.67
2022-12-22T15:01:32.905Z,47.08
2022-12-22T15:04:04.297Z,47.58
2022-12-22T15:06:35.268Z,40.22
2022-12-22T15:09:09.061Z,45.22
2022-12-22T15:11:42.254Z,94.15
2022-12-22T15:14:18.430Z,47.35
2022-12-22T15:16:47.175Z,40.95
2022-12-22T15:19:18.575Z,42.60
2022-12-22T15:21:47.096Z,44.67
2022-12-22T15:24:18.359Z,57.28
2022-12-22T15:26:46.762Z,55.33
2022-12-22T15:29:14.564Z,60.22
2022-12-22T15:31:43.483Z,58.40
2022-12-22T15:34:29.287Z,49.22
2022-12-22T15:36:56.650Z,47.10
2022-12-22T15:39:24.656Z,43.88
2022-12-22T15:41:52.050Z,44.58
2022-12-22T15:44:19.518Z,45.88
2022-12-22T15:46:57.693Z,50.47
2022-12-22T15:49:29.579Z,45.92
2022-12-22T15:52:04.395Z,44.10
2022-12-22T15:54:36.378Z,45.33
2022-12-22T15:57:04.205Z,44.50
2022-12-22T15:59:31.479Z,48.13
2022-12-22T16:02:01.787Z,47.90
2022-12-22T16:04:30.071Z,47.85
2022-12-22T16:06:59.759Z,44.17
2022-12-22T16:09:38.146Z,48.33
2022-12-22T16:12:18.973Z,47.53
2022-12-22T16:14:52.102Z,49.42
2022-12-22T16:17:26.949Z,44.03
2022-12-22T16:19:54.470Z,46.63
2022-12-22T16:22:34.153Z,44.20
2022-12-22T16:25:07.064Z,58.63
2022-12-22T16:27:35.752Z,42.28
2022-12-22T16:30:05.367Z,41.30
2022-12-22T16:32:32.902Z,43.00
2022-12-22T16:35:09.062Z,44.92
2022-12-22T16:37:39.463Z,41.88
2022-12-22T16:40:11.393Z,38.55
2022-12-22T16:45:32.705Z,35.92
2022-12-22T16:48:05.939Z,38.03
2022-12-22T16:50:33.683Z,38.50
2022-12-22T16:53:09.465Z,42.50
2022-12-22T16:58:12.907Z,36.30
2022-12-22T17:00:44.470Z,33.92
2022-12-22T17:03:28.218Z,36.42
2022-12-22T17:06:03.242Z,38.30
2022-12-22T17:08:39.320Z,37.60
2022-12-22T17:11:11.559Z,37.25
2022-12-22T17:13:41.543Z,37.30
2022-12-22T17:16:21.625Z,33.22
2022-12-22T17:18:49.409Z,35.40
2022-12-22T17:21:21.075Z,35.58
2022-12-22T17:23:54.596Z,34.85
2022-12-22T17:26:24.810Z,52.20
2022-12-22T17:28:53.159Z,38.15
2022-12-22T17:31:24.014Z,43.22
2022-12-22T17:33:51.456Z,37.45
2022-12-22T17:36:37.536Z,36.13
2022-12-22T17:41:32.681Z,35.78
2022-12-22T17:44:00.038Z,37.50
2022-12-22T17:46:28.220Z,39.60
2022-12-22T17:48:55.411Z,37.80
2022-12-22T17:51:28.402Z,39.75
2022-12-22T17:53:58.860Z,40.55
2022-12-22T17:56:29.231Z,36.92
2022-12-22T17:58:56.569Z,40.55
2022-12-22T18:01:36.260Z,38.63
2022-12-22T18:04:04.022Z,40.78
2022-12-22T18:06:36.093Z,38.13
2022-12-22T18:09:05.410Z,39.78
2022-12-22T18:11:33.329Z,40.85
2022-12-22T18:14:00.628Z,43.80
2022-12-22T18:16:28.518Z,43.42
2022-12-22T18:18:55.882Z,48.65
2022-12-22T18:21:25.130Z,53.78
2022-12-22T18:23:52.867Z,49.20
2022-12-22T18:26:25.701Z,48.72
2022-12-22T18:28:54.536Z,56.60
2022-12-22T18:31:23.570Z,53.92
2022-12-22T18:33:51.419Z,47.58
2022-12-22T18:36:34.549Z,48.42
2022-12-22T18:39:04.656Z,53.90
2022-12-22T18:41:37.335Z,54.70
2022-12-22T18:44:07.556Z,53.25
2022-12-22T18:46:35.087Z,62.15
2022-12-22T18:49:05.873Z,63.28
2022-12-22T18:51:33.445Z,64.13
2022-12-22T18:54:00.903Z,64.30
2022-12-22T18:56:28.184Z,56.67
2022-12-22T18:58:55.543Z,53.92
2022-12-22T19:01:26.683Z,49.40
2022-12-22T19:03:57.031Z,54.25
2022-12-22T19:06:24.624Z,53.15
2022-12-22T19:08:52.198Z,45.70
2022-12-22T19:11:25.290Z,54.95
2022-12-22T19:13:53.264Z,50.65
2022-12-22T19:16:26.298Z,58.00
2022-12-22T19:18:53.759Z,60.13
2022-12-22T19:21:21.262Z,60.85
2022-12-22T19:23:48.446Z,59.72
2022-12-22T19:26:28.046Z,67.47
2022-12-22T19:29:02.005Z,67.28
2022-12-22T19:31:33.885Z,68.28
2022-12-22T19:34:05.845Z,59.08
2022-12-22T19:36:34.413Z,60.78
2022-12-22T19:39:05.223Z,60.70
2022-12-22T19:41:45.217Z,49.20
2022-12-22T19:44:27.569Z,55.05
2022-12-22T19:46:59.256Z,56.53
2022-12-22T19:49:28.713Z,49.78
2022-12-22T19:51:57.087Z,53.72
2022-12-22T19:54:25.226Z,52.65
2022-12-22T19:56:56.233Z,60.75
2022-12-22T19:59:50.103Z,48.67
2022-12-22T20:02:32.056Z,52.15
2022-12-22T20:05:01.152Z,51.15
2022-12-22T20:07:30.597Z,57.28
2022-12-22T20:09:57.899Z,58.80
2022-12-22T20:12:42.206Z,53.45
2022-12-22T20:15:37.062Z,52.88
2022-12-22T20:18:19.545Z,44.33
2022-12-22T20:21:00.457Z,43.25
2022-12-22T20:23:38.444Z,45.05
2022-12-22T20:26:18.012Z,52.33
2022-12-22T20:28:45.359Z,49.72
2022-12-22T20:31:16.615Z,51.28
2022-12-22T20:33:43.998Z,50.42
2022-12-22T20:36:23.350Z,46.97
2022-12-22T20:38:52.651Z,51.42
2022-12-22T20:41:21.297Z,56.95
2022-12-22T20:43:49.797Z,49.78
2022-12-22T20:46:37.580Z,53.35
2022-12-22T20:49:13.286Z,60.60
2022-12-22T20:51:40.770Z,51.00
2022-12-22T20:54:13.722Z,51.80
2022-12-22T20:56:44.898Z,55.55
2022-12-22T20:59:22.183Z,54.22
2022-12-22T21:01:52.827Z,52.72
2022-12-22T21:04:21.501Z,52.30
2022-12-22T21:06:55.846Z,52.92
2022-12-22T21:09:28.008Z,50.42
2022-12-22T21:11:55.224Z,51.97
2022-12-22T21:14:22.505Z,50.28
2022-12-22T21:16:52.257Z,49.20
2022-12-22T21:19:20.074Z,50.72
2022-12-22T21:21:47.831Z,48.47
2022-12-22T21:24:18.730Z,48.97
2022-12-22T21:26:55.289Z,46.70
2022-12-22T21:29:26.995Z,55.83
2022-12-22T21:31:57.289Z,53.92
2022-12-22T21:34:24.494Z,47.40
2022-12-22T21:37:00.010Z,54.00
2022-12-22T21:39:41.572Z,56.30
2022-12-22T21:42:17.948Z,56.15
2022-12-22T21:44:47.738Z,52.03
2022-12-22T21:47:20.611Z,50.35
2022-12-22T21:49:47.917Z,54.47
2022-12-22T21:52:15.478Z,52.00
2022-12-22T21:54:42.684Z,60.35
2022-12-22T21:57:16.241Z,58.65
2022-12-22T21:59:43.525Z,63.78
2022-12-22T22:02:17.103Z,59.30
2022-12-22T22:04:51.824Z,61.35
2022-12-22T22:07:21.942Z,58.60
2022-12-22T22:09:49.311Z,67.30
2022-12-22T22:12:36.727Z,77.32
2022-12-22T22:15:08.450Z,75.97
2022-12-22T22:17:35.859Z,68.00
2022-12-22T22:20:05.840Z,78.75
2022-12-22T22:22:33.156Z,78.93
2022-12-22T22:25:00.334Z,83.72
2022-12-22T22:27:27.638Z,77.32
2022-12-22T22:29:55.044Z,78.05
2022-12-22T22:32:22.381Z,85.82
2022-12-22T22:34:51.341Z,85.45
2022-12-22T22:37:19.775Z,90.90
2022-12-22T22:39:47.006Z,91.05
2022-12-22T22:42:14.553Z,88.55
2022-12-22T22:44:43.787Z,85.70
2022-12-22T22:47:12.004Z,87.97
2022-12-22T22:49:39.263Z,87.68
2022-12-22T22:52:06.775Z,86.82
2022-12-22T22:54:34.135Z,90.75
2022-12-22T22:57:01.402Z,82.57
2022-12-22T22:59:28.733Z,90.15
2022-12-22T23:01:56.038Z,86.57
2022-12-22T23:04:23.421Z,89.25
2022-12-22T23:06:50.688Z,92.82
2022-12-22T23:09:18.191Z,92.03
2022-12-22T23:11:45.765Z,92.43
2022-12-22T23:14:13.147Z,93.03
2022-12-22T23:16:40.425Z,88.72
2022-12-22T23:19:12.419Z,84.18
2022-12-22T23:21:39.893Z,90.78
2022-12-22T23:24:08.089Z,94.03
2022-12-22T23:26:36.032Z,93.78
2022-12-22T23:29:04.152Z,93.30
2022-12-22T23:31:35.227Z,96.32
2022-12-22T23:34:03.662Z,97.43
2022-12-22T23:36:31.830Z,91.15
2022-12-22T23:38:59.063Z,90.65
2022-12-22T23:41:26.528Z,92.32
2022-12-22T23:43:54.995Z,90.07
2022-12-22T23:46:22.822Z,94.13
2022-12-22T23:48:57.375Z,97.72
2022-12-22T23:51:28.501Z,99.03
2022-12-22T23:53:59.445Z,97.43
2022-12-22T23:56:28.160Z,104.18
2022-12-22T23:58:55.741Z,100.90
